Terminal Aerodrome Forecast
Issued by NWS

Home | Current Version | Previous Version | Text Only | Print | Product List | Glossary On
Versions: 1 2 3 4 5 6 7 8 9 10 11 12 13 14 15 16 17 18 19 20 21 22 23 24 25 26 27 28 29 30 31 32 33 34
000
FTUS43 KDLH 161900 AAA
TAFHYR
TAF AMD
KHYR 161915Z 1619/1718 34008G15KT 6SM -SN BKN015 OVC035
      TEMPO 1620/1624 3SM -SN SCT017 OVC030
     FM170900 32004KT 5SM -SN BKN013 OVC030=

USA.gov is the U.S. government's official web portal to all federal, state and local government web resources and services.